createdAt,value
2018-06-30T00:01:02.044Z,84.52
2018-06-30T00:02:11.506Z,84.13
2018-06-30T00:03:21.473Z,84.32
2018-06-30T00:04:31.190Z,84.23
2018-06-30T00:05:41.164Z,84.8
2018-06-30T00:06:51.126Z,84.89
2018-06-30T00:08:01.095Z,84.61
2018-06-30T00:09:11.064Z,84.52
2018-06-30T00:10:20.839Z,84.61
2018-06-30T00:11:30.649Z,84.8
2018-06-30T00:12:40.614Z,84.8
2018-06-30T00:13:50.604Z,85.47
2018-06-30T00:15:00.312Z,84.7
2018-06-30T00:16:10.332Z,85.28
2018-06-30T00:17:20.301Z,85.57
2018-06-30T00:18:30.270Z,85.52
2018-06-30T00:19:40.233Z,85.62
2018-06-30T00:20:50.205Z,85.62
2018-06-30T00:22:00.206Z,85.71
2018-06-30T00:23:10.174Z,86.1
2018-06-30T00:24:19.885Z,85.33
2018-06-30T00:25:29.851Z,85.9
2018-06-30T00:26:39.815Z,86.1
2018-06-30T00:27:49.298Z,85.9
2018-06-30T00:28:59.274Z,86.19
2018-06-30T00:30:09.244Z,86.29
2018-06-30T00:31:19.205Z,86.57
2018-06-30T00:32:29.180Z,86.29
2018-06-30T00:33:39.127Z,86.76
2018-06-30T00:34:48.574Z,86.67
2018-06-30T00:35:58.537Z,86.67
2018-06-30T00:37:08.253Z,86.96
2018-06-30T00:38:18.377Z,86.96
2018-06-30T00:39:27.970Z,86.57
2018-06-30T00:40:37.930Z,87.05
2018-06-30T00:41:47.627Z,87.24
2018-06-30T00:42:57.593Z,87.34
2018-06-30T00:44:07.568Z,88.2
2018-06-30T00:45:17.525Z,87.72
2018-06-30T00:46:27.486Z,88.01
2018-06-30T00:47:37.188Z,87.68
2018-06-30T00:48:47.144Z,87.87
2018-06-30T00:49:56.846Z,87.96
2018-06-30T00:51:06.296Z,88.06
2018-06-30T00:52:16.090Z,88.06
2018-06-30T00:53:26.133Z,87.91
2018-06-30T00:54:35.833Z,87.77
2018-06-30T00:55:45.795Z,88.06
2018-06-30T00:56:55.751Z,88.34
2018-06-30T00:58:05.723Z,88.15
2018-06-30T00:59:15.680Z,87.96
2018-06-30T01:00:25.640Z,87.96
2018-06-30T01:01:35.361Z,88.25
2018-06-30T01:02:45.319Z,87.96
2018-06-30T01:03:55.009Z,87.87
2018-06-30T01:05:04.984Z,87.68
2018-06-30T01:06:14.425Z,87.96
2018-06-30T01:07:24.402Z,87.96
2018-06-30T01:08:34.357Z,88.15
2018-06-30T01:09:44.327Z,87.96
2018-06-30T01:10:54.296Z,87.58
2018-06-30T01:12:04.253Z,87.58
2018-06-30T01:13:14.234Z,87.77
2018-06-30T01:14:23.939Z,87.58
2018-06-30T01:15:33.658Z,87.77
2018-06-30T01:16:43.370Z,87.68
2018-06-30T01:17:53.355Z,87.77
2018-06-30T01:19:03.073Z,88.06
2018-06-30T01:20:13.033Z,88.06
2018-06-30T01:21:22.995Z,87.96
2018-06-30T01:22:32.966Z,88.06
2018-06-30T01:23:42.674Z,87.96
2018-06-30T01:24:52.370Z,88.06
2018-06-30T01:26:02.075Z,87.87
2018-06-30T01:27:12.035Z,87.96
2018-06-30T01:28:22.019Z,88.54
2018-06-30T01:29:31.995Z,88.54
2018-06-30T01:30:42.016Z,88.34
2018-06-30T01:31:51.977Z,88.3
2018-06-30T01:33:01.688Z,88.3
2018-06-30T01:34:11.386Z,88.2
2018-06-30T01:35:21.100Z,88.68
2018-06-30T01:36:31.065Z,88.78
2018-06-30T01:37:41.044Z,88.49
2018-06-30T01:38:51.019Z,88.34
2018-06-30T01:40:00.724Z,88.49
2018-06-30T01:41:10.695Z,88.68
2018-06-30T01:42:20.665Z,88.3
2018-06-30T01:43:30.633Z,88.4
2018-06-30T01:44:40.583Z,88.68
2018-06-30T01:45:50.292Z,88.87
2018-06-30T01:47:00.258Z,89.06
2018-06-30T01:48:10.236Z,89.64
2018-06-30T01:49:19.953Z,89.45
2018-06-30T01:50:29.920Z,89.64
2018-06-30T01:51:39.636Z,89.35
2018-06-30T01:52:49.606Z,89.45
2018-06-30T01:53:59.565Z,89.73
2018-06-30T01:55:09.275Z,89.83
2018-06-30T01:56:18.721Z,89.35
2018-06-30T01:57:28.174Z,89.64
2018-06-30T01:58:38.139Z,89.45
2018-06-30T01:59:48.104Z,89.25
2018-06-30T02:00:57.814Z,89.35
2018-06-30T02:02:06.744Z,89.45
2018-06-30T02:03:16.699Z,89.64
2018-06-30T02:04:26.399Z,89.54
2018-06-30T02:05:36.367Z,89.54
2018-06-30T02:06:46.328Z,89.83
2018-06-30T02:07:56.033Z,89.54
2018-06-30T02:09:05.746Z,90.17
2018-06-30T02:10:15.455Z,90.36
2018-06-30T02:11:25.160Z,90.45
2018-06-30T02:12:34.854Z,90.4
2018-06-30T02:13:44.822Z,90.59
2018-06-30T02:14:54.787Z,90.26
2018-06-30T02:16:04.762Z,90.21
2018-06-30T02:17:14.732Z,90.36
2018-06-30T02:18:24.683Z,90.45
2018-06-30T02:19:34.655Z,90.59
2018-06-30T02:20:44.621Z,90.55
2018-06-30T02:21:54.589Z,90.83
2018-06-30T02:23:04.557Z,90.73
2018-06-30T02:24:14.265Z,91.12
2018-06-30T02:25:24.218Z,90.93
2018-06-30T02:26:33.937Z,91.6
2018-06-30T02:27:43.896Z,90.73
2018-06-30T02:28:53.849Z,90.64
2018-06-30T02:30:03.559Z,90.55
2018-06-30T02:31:13.524Z,90.55
2018-06-30T02:32:23.492Z,90.64
2018-06-30T02:33:33.468Z,91.02
2018-06-30T02:34:43.435Z,90.36
2018-06-30T02:35:53.162Z,90.83
2018-06-30T02:37:02.888Z,91.12
2018-06-30T02:38:12.860Z,91.21
2018-06-30T02:39:22.831Z,91.31
2018-06-30T02:40:32.803Z,91.6
2018-06-30T02:41:42.774Z,91.5
2018-06-30T02:42:52.767Z,91.12
2018-06-30T02:44:02.740Z,91.31
2018-06-30T02:45:12.703Z,91.69
2018-06-30T02:46:22.672Z,91.78
2018-06-30T02:47:32.641Z,91.78
2018-06-30T02:48:42.597Z,91.6
2018-06-30T02:49:52.581Z,91.6
2018-06-30T02:51:02.294Z,91.55
2018-06-30T02:52:12.273Z,92.07
2018-06-30T02:53:22.255Z,91.83
2018-06-30T02:54:32.223Z,92.12
2018-06-30T02:55:42.182Z,92.55
2018-06-30T02:56:52.151Z,92.6
2018-06-30T02:58:01.880Z,92.22
2018-06-30T02:59:11.852Z,92.69
2018-06-30T03:00:21.818Z,93.17
2018-06-30T03:01:31.815Z,93.46
2018-06-30T03:02:41.778Z,93.17
2018-06-30T03:03:51.488Z,93.27
2018-06-30T03:05:01.194Z,93.46
2018-06-30T03:06:11.162Z,93.27
2018-06-30T03:07:21.127Z,93.08
2018-06-30T03:08:31.104Z,92.88
2018-06-30T03:09:41.063Z,93.74
2018-06-30T03:10:50.778Z,93.46
2018-06-30T03:12:00.727Z,93.55
2018-06-30T03:13:10.720Z,93.65
2018-06-30T03:14:20.739Z,93.93
2018-06-30T03:15:30.779Z,93.74
2018-06-30T03:16:40.486Z,93.08
2018-06-30T03:17:50.188Z,93.36
2018-06-30T03:19:00.145Z,93.55
2018-06-30T03:20:10.110Z,93.55
2018-06-30T03:21:19.578Z,93.55
2018-06-30T03:22:29.538Z,93.55
2018-06-30T03:23:39.513Z,93.17
2018-06-30T03:24:49.472Z,93.17
2018-06-30T03:25:59.176Z,93.08
2018-06-30T03:27:08.888Z,93.36
2018-06-30T03:28:18.851Z,93.36
2018-06-30T03:29:28.817Z,93.84
2018-06-30T03:30:38.789Z,93.74
2018-06-30T03:31:48.946Z,93.36
2018-06-30T03:32:58.933Z,93.74
2018-06-30T03:34:08.380Z,93.36
2018-06-30T03:35:18.337Z,93.74
2018-06-30T03:36:28.293Z,93.36
2018-06-30T03:37:38.264Z,93.46
2018-06-30T03:38:48.219Z,93.36
2018-06-30T03:39:58.189Z,93.55
2018-06-30T03:41:07.638Z,93.08
2018-06-30T03:42:17.607Z,93.55
2018-06-30T03:43:27.582Z,92.98
2018-06-30T03:44:37.335Z,93.36
2018-06-30T03:45:47.296Z,93.08
2018-06-30T03:46:57.252Z,93.08
2018-06-30T03:48:07.246Z,92.6
2018-06-30T03:49:17.206Z,92.98
2018-06-30T03:50:27.165Z,92.12
2018-06-30T03:51:37.122Z,92.79
2018-06-30T03:52:46.832Z,92.32
2018-06-30T03:53:56.792Z,92.88
2018-06-30T03:55:06.752Z,92.41
2018-06-30T03:56:16.456Z,92.5
2018-06-30T03:57:26.415Z,91.83
2018-06-30T03:58:36.384Z,91.83
2018-06-30T03:59:46.088Z,92.12
2018-06-30T04:00:55.791Z,91.02
2018-06-30T04:02:05.744Z,91.02
2018-06-30T04:03:15.718Z,90.64
2018-06-30T04:04:25.675Z,90.45
2018-06-30T04:05:35.693Z,90.55
2018-06-30T04:06:45.657Z,90.36
2018-06-30T04:07:55.645Z,89.97
2018-06-30T04:09:05.599Z,89.88
2018-06-30T04:10:15.557Z,89.69
2018-06-30T04:11:25.557Z,89.5
2018-06-30T04:12:35.523Z,89.69
2018-06-30T04:13:45.497Z,89.21
2018-06-30T04:14:55.215Z,89.59
2018-06-30T04:16:04.918Z,89.4
2018-06-30T04:17:14.617Z,89.02
2018-06-30T04:18:24.073Z,89.21
2018-06-30T04:19:34.038Z,88.83
2018-06-30T04:20:43.483Z,88.92
2018-06-30T04:21:53.187Z,88.83
2018-06-30T04:23:03.229Z,88.87
2018-06-30T04:24:13.197Z,88.49
2018-06-30T04:25:23.159Z,89.06
2018-06-30T04:26:33.249Z,87.44
2018-06-30T04:27:43.211Z,87.92
2018-06-30T04:28:52.929Z,87.82
2018-06-30T04:30:02.888Z,87.92
2018-06-30T04:31:12.610Z,87.06
2018-06-30T04:32:22.320Z,87.35
2018-06-30T04:33:32.022Z,87.63
2018-06-30T04:34:41.990Z,87.54
2018-06-30T04:35:51.970Z,86.3
2018-06-30T04:37:01.939Z,86.01
2018-06-30T04:38:11.916Z,86.68
2018-06-30T04:39:21.883Z,86.68
2018-06-30T04:40:31.855Z,85.82
2018-06-30T04:41:41.837Z,86.1
2018-06-30T04:42:51.796Z,86.01
2018-06-30T04:44:01.755Z,85.34
2018-06-30T04:45:11.748Z,85.53
2018-06-30T04:46:21.854Z,84.91
2018-06-30T04:47:31.566Z,84.96
2018-06-30T04:48:41.546Z,84.33
2018-06-30T04:49:51.514Z,84.52
2018-06-30T04:51:01.532Z,83.95
2018-06-30T04:52:11.762Z,83.47
2018-06-30T04:53:21.736Z,83.57
2018-06-30T04:54:31.197Z,83.57
2018-06-30T04:55:40.908Z,83.18
2018-06-30T04:56:50.635Z,83.09
2018-06-30T04:58:00.601Z,83.09
2018-06-30T04:59:10.579Z,83
2018-06-30T05:00:20.556Z,82.71
2018-06-30T05:01:30.267Z,82.42
2018-06-30T05:02:40.225Z,82.42
2018-06-30T05:03:50.204Z,82.23
2018-06-30T05:05:00.172Z,82.52
2018-06-30T05:06:10.130Z,82.81
2018-06-30T05:07:19.839Z,82.04
2018-06-30T05:08:29.534Z,81.18
2018-06-30T05:09:39.229Z,81.22
2018-06-30T05:10:49.194Z,80.7
2018-06-30T05:11:59.150Z,81.47
2018-06-30T05:13:08.858Z,81.13
2018-06-30T05:14:18.888Z,80.93
2018-06-30T05:15:28.608Z,80.36
2018-06-30T05:16:38.562Z,80.36
2018-06-30T05:17:48.282Z,80.65
2018-06-30T05:18:58.244Z,80.74
2018-06-30T05:20:08.202Z,80.27
2018-06-30T05:21:18.158Z,79.6
2018-06-30T05:22:28.116Z,79.69
2018-06-30T05:23:38.075Z,80.07
2018-06-30T05:24:47.775Z,80.27
2018-06-30T05:25:57.855Z,79.79
2018-06-30T05:27:07.506Z,80.07
2018-06-30T05:28:17.475Z,79.5
2018-06-30T05:29:27.444Z,79.6
2018-06-30T05:30:37.414Z,80.02
2018-06-30T05:31:47.398Z,79.16
2018-06-30T05:32:57.351Z,79.35
2018-06-30T05:34:06.795Z,79.16
2018-06-30T05:35:16.490Z,78.78
2018-06-30T05:36:26.458Z,79.44
2018-06-30T05:37:36.438Z,78.97
2018-06-30T05:38:45.897Z,78.78
2018-06-30T05:39:55.876Z,79.06
2018-06-30T05:41:05.925Z,78.49
2018-06-30T05:42:15.580Z,78.2
2018-06-30T05:43:25.291Z,78.11
2018-06-30T05:44:34.997Z,78.58
2018-06-30T05:45:44.964Z,78.2
2018-06-30T05:46:54.911Z,78.11
2018-06-30T05:48:04.632Z,78.3
2018-06-30T05:49:14.594Z,77.67
2018-06-30T05:50:24.304Z,77.38
2018-06-30T05:51:34.273Z,77.57
2018-06-30T05:52:44.253Z,77.38
2018-06-30T05:53:54.265Z,77.38
2018-06-30T05:55:04.221Z,76.42
2018-06-30T05:56:14.238Z,76.71
2018-06-30T05:57:24.212Z,76.62
2018-06-30T05:58:34.195Z,75.56
2018-06-30T05:59:44.178Z,75.95
2018-06-30T06:00:54.138Z,75.56
2018-06-30T06:02:04.101Z,75.47
2018-06-30T06:03:14.061Z,75.37
2018-06-30T06:04:24.030Z,73.08
2018-06-30T06:05:33.748Z,73.46
2018-06-30T06:06:43.714Z,74.22
2018-06-30T06:07:53.684Z,73.75
2018-06-30T06:09:03.652Z,74.61
2018-06-30T06:10:13.106Z,74.65
2018-06-30T06:11:23.066Z,73.5
2018-06-30T06:12:33.027Z,74.07
2018-06-30T06:15:50.544Z,72.92
2018-06-30T06:17:00.267Z,72.83
2018-06-30T06:18:10.240Z,72.54
2018-06-30T06:19:19.949Z,71.97
2018-06-30T06:20:29.664Z,70.34
2018-06-30T06:21:39.633Z,68.9
2018-06-30T06:22:49.348Z,69.19
2018-06-30T06:23:59.321Z,68.9
2018-06-30T06:25:09.031Z,67.98
2018-06-30T06:26:18.995Z,67.21
2018-06-30T06:27:29.000Z,67.08
2018-06-30T06:28:39.230Z,67.6
2018-06-30T06:29:49.187Z,67.21
2018-06-30T06:30:59.152Z,67.41
2018-06-30T06:32:09.112Z,67.11
2018-06-30T06:33:19.083Z,67.41
2018-06-30T06:34:29.056Z,65.39
2018-06-30T06:35:39.050Z,65.71
2018-06-30T06:36:49.021Z,64.56
2018-06-30T06:37:58.728Z,64.37
2018-06-30T06:39:08.703Z,63.8
2018-06-30T06:40:18.681Z,64.09
2018-06-30T06:41:28.663Z,63.99
2018-06-30T06:42:38.728Z,64.18
2018-06-30T06:43:48.700Z,64.18
2018-06-30T06:44:58.663Z,63.99
2018-06-30T06:46:08.641Z,64.28
2018-06-30T06:47:18.651Z,63.32
2018-06-30T06:48:28.353Z,62.17
2018-06-30T06:49:38.320Z,61.21
2018-06-30T06:50:48.049Z,60.64
2018-06-30T06:51:58.054Z,59.04
2018-06-30T06:53:08.025Z,58.37
2018-06-30T06:54:17.478Z,57.7
2018-06-30T06:55:27.451Z,57.6
2018-06-30T06:56:37.415Z,57.89
2018-06-30T06:57:47.120Z,57.6
2018-06-30T06:58:56.829Z,57.7
2018-06-30T07:00:06.541Z,55.97
2018-06-30T07:01:16.243Z,54.82
2018-06-30T07:02:26.214Z,54.53
2018-06-30T07:03:36.193Z,54.63
2018-06-30T07:04:46.401Z,54.34
2018-06-30T07:05:55.878Z,54.46
2018-06-30T07:07:05.864Z,54.44
2018-06-30T07:08:15.846Z,54.94
2018-06-30T07:09:25.954Z,54.37
2018-06-30T07:10:35.665Z,54.56
2018-06-30T07:11:45.621Z,54.75
2018-06-30T07:12:55.587Z,55.23
2018-06-30T07:14:05.310Z,54.94
2018-06-30T07:15:15.271Z,54.46
2018-06-30T07:16:25.415Z,54.46
2018-06-30T07:17:35.136Z,52.28
2018-06-30T07:18:44.832Z,52.26
2018-06-30T07:19:54.559Z,52.45
2018-06-30T07:21:04.555Z,52.38
2018-06-30T07:22:14.632Z,52.19
2018-06-30T07:23:24.357Z,51.81
2018-06-30T07:24:34.495Z,51.23
2018-06-30T07:25:44.813Z,51.9
2018-06-30T07:26:54.769Z,51.23
2018-06-30T07:28:04.742Z,50.46
2018-06-30T07:29:14.708Z,50.75
2018-06-30T07:30:24.426Z,49.98
2018-06-30T07:31:34.395Z,49.12
2018-06-30T07:32:44.119Z,48.85
2018-06-30T07:33:53.837Z,48.76
2018-06-30T07:35:03.812Z,48.38
2018-06-30T07:36:13.563Z,48.47
2018-06-30T07:37:23.684Z,47.8
2018-06-30T07:38:33.846Z,48.47
2018-06-30T07:39:43.752Z,48.47
2018-06-30T07:40:53.714Z,48.57
2018-06-30T07:42:03.673Z,47.41
2018-06-30T07:43:13.718Z,46.65
2018-06-30T07:44:24.057Z,46.84
2018-06-30T07:45:33.764Z,46.74
2018-06-30T07:46:43.721Z,46.45
2018-06-30T07:47:53.694Z,46.55
2018-06-30T07:49:03.669Z,46.36
2018-06-30T07:50:13.717Z,46.77
2018-06-30T07:51:23.491Z,46.77
2018-06-30T07:52:33.515Z,46.86
2018-06-30T07:53:43.509Z,46.48
2018-06-30T07:54:53.647Z,46.19
2018-06-30T07:56:03.639Z,46.38
2018-06-30T07:57:13.893Z,46.09
2018-06-30T07:58:23.870Z,46.28
2018-06-30T07:59:34.008Z,45.81
2018-06-30T08:00:43.983Z,46.21
2018-06-30T08:01:53.945Z,46.21
2018-06-30T08:03:04.107Z,46.31
2018-06-30T08:04:14.077Z,45.73
2018-06-30T08:05:23.806Z,46.59
2018-06-30T08:06:33.527Z,46.69
2018-06-30T08:07:43.450Z,46.89
2018-06-30T08:08:53.163Z,47.36
2018-06-30T08:10:03.050Z,47.27
2018-06-30T08:11:13.034Z,46.79
2018-06-30T08:12:23.016Z,46.5
2018-06-30T08:13:32.977Z,46.79
2018-06-30T08:14:42.931Z,46.41
2018-06-30T08:15:52.911Z,46.43
2018-06-30T08:17:02.386Z,46.21
2018-06-30T08:18:12.363Z,45.95
2018-06-30T08:19:22.069Z,44.79
2018-06-30T08:20:32.050Z,45.37
2018-06-30T08:21:42.022Z,45.35
2018-06-30T08:22:51.992Z,45.18
2018-06-30T08:24:01.978Z,44.79
2018-06-30T08:25:11.690Z,45.28
2018-06-30T08:26:21.663Z,45.37
2018-06-30T08:27:31.391Z,45.08
2018-06-30T08:28:41.106Z,44.51
2018-06-30T08:29:51.080Z,44.22
2018-06-30T08:31:01.040Z,44.43
2018-06-30T08:32:11.004Z,44.34
2018-06-30T08:33:20.997Z,44.53
2018-06-30T08:34:30.749Z,44.24
2018-06-30T08:35:40.736Z,44.82
2018-06-30T08:36:50.706Z,44.72
2018-06-30T08:38:00.671Z,44.91
2018-06-30T08:39:10.631Z,44.74
2018-06-30T08:40:20.622Z,44.82
2018-06-30T08:41:30.353Z,44.82
2018-06-30T08:42:40.557Z,44.91
2018-06-30T08:43:50.572Z,44.72
2018-06-30T08:45:00.553Z,45.1
2018-06-30T08:46:10.272Z,45.03
2018-06-30T08:47:19.998Z,44.45
2018-06-30T08:48:29.737Z,42.46
2018-06-30T08:49:39.465Z,42.49
2018-06-30T08:50:49.431Z,42.61
2018-06-30T08:51:59.146Z,42.61
2018-06-30T08:53:08.865Z,42.42
2018-06-30T08:54:18.845Z,42.23
2018-06-30T08:55:29.096Z,42.32
2018-06-30T08:56:39.314Z,42.42
2018-06-30T08:57:49.301Z,42.71
2018-06-30T08:58:59.296Z,42.61
2018-06-30T09:00:09.263Z,42.03
2018-06-30T09:01:18.974Z,42.13
2018-06-30T09:02:28.696Z,42.11
2018-06-30T09:03:38.444Z,42.3
2018-06-30T09:04:48.387Z,42.3
2018-06-30T09:05:58.360Z,42.49
2018-06-30T09:07:08.079Z,42.79
2018-06-30T09:08:17.795Z,42.49
2018-06-30T09:09:27.767Z,42.59
2018-06-30T09:10:37.549Z,43.46
2018-06-30T09:11:47.931Z,43.34
2018-06-30T09:12:57.714Z,43.54
2018-06-30T09:14:07.448Z,42.69
2018-06-30T09:15:17.443Z,41.84
2018-06-30T09:16:27.425Z,41.48
2018-06-30T09:17:37.404Z,40.7
2018-06-30T09:18:47.119Z,40.24
2018-06-30T09:19:56.837Z,40.44
2018-06-30T09:21:06.551Z,40.34
2018-06-30T09:22:16.520Z,39.01
2018-06-30T09:23:26.229Z,38.91
2018-06-30T09:24:35.948Z,38.25
2018-06-30T09:25:45.673Z,38.35
2018-06-30T09:26:55.129Z,38.08
2018-06-30T09:28:05.144Z,38.08
2018-06-30T09:29:15.131Z,38.18
2018-06-30T09:30:25.103Z,38.35
2018-06-30T09:31:35.072Z,38.37
2018-06-30T09:32:45.064Z,37.81
2018-06-30T09:33:54.774Z,36.84
2018-06-30T09:35:04.758Z,36.16
2018-06-30T09:36:14.746Z,35.7
2018-06-30T09:37:24.717Z,35.31
2018-06-30T09:38:34.680Z,35.42
2018-06-30T09:39:44.661Z,35.62
2018-06-30T09:40:54.642Z,34.27
2018-06-30T09:42:04.633Z,34.67
2018-06-30T09:43:14.609Z,34.28
2018-06-30T09:44:24.424Z,33.91
2018-06-30T09:45:34.944Z,34.19
2018-06-30T09:46:44.681Z,34.47
2018-06-30T09:47:54.649Z,34.47
2018-06-30T09:49:04.377Z,35.05
2018-06-30T09:50:14.088Z,35.33
2018-06-30T09:51:23.824Z,35.62
2018-06-30T09:52:33.821Z,34.36
2018-06-30T09:53:43.807Z,34.45
2018-06-30T09:54:53.792Z,34.47
2018-06-30T09:56:03.504Z,34.36
2018-06-30T09:57:13.224Z,34.47
2018-06-30T09:58:22.939Z,34.36
2018-06-30T09:59:32.915Z,34.75
2018-06-30T10:00:42.896Z,35.21
2018-06-30T10:01:52.865Z,35.21
2018-06-30T10:03:02.850Z,34.73
2018-06-30T10:04:12.820Z,34.45
2018-06-30T10:05:22.801Z,34.45
2018-06-30T10:06:32.524Z,34.38
2018-06-30T10:07:42.501Z,34.28
2018-06-30T10:08:52.477Z,33.99
2018-06-30T10:10:02.192Z,33.33
2018-06-30T10:11:11.920Z,32.57
2018-06-30T10:12:21.912Z,32.29
2018-06-30T10:13:31.476Z,32.39
2018-06-30T10:14:41.469Z,32
2018-06-30T10:15:51.453Z,30.66
2018-06-30T10:17:01.183Z,30.95
2018-06-30T10:18:11.173Z,31.05
2018-06-30T10:19:21.008Z,31.34
2018-06-30T10:20:31.210Z,31.81
2018-06-30T10:21:41.200Z,31.04
2018-06-30T10:22:51.177Z,30.57
2018-06-30T10:24:01.164Z,31.34
2018-06-30T10:25:10.656Z,31.53
2018-06-30T10:26:20.131Z,31.32
2018-06-30T10:27:30.109Z,31.52
2018-06-30T10:28:40.103Z,31.13
2018-06-30T10:29:50.092Z,30.95
2018-06-30T10:31:00.067Z,30.19
2018-06-30T10:32:09.538Z,30.29
2018-06-30T10:33:19.277Z,30.76
2018-06-30T10:34:29.031Z,30.77
2018-06-30T10:35:38.768Z,31.05
2018-06-30T10:36:48.760Z,31.74
2018-06-30T10:37:58.491Z,31.71
2018-06-30T10:39:08.219Z,31.89
2018-06-30T10:40:18.195Z,32
2018-06-30T10:41:28.165Z,31.71
2018-06-30T10:42:38.160Z,31.81
2018-06-30T10:43:48.148Z,31.62
2018-06-30T10:44:57.870Z,30.47
2018-06-30T10:46:07.652Z,30.76
2018-06-30T10:47:17.392Z,30.16
2018-06-30T10:48:27.371Z,30.57
2018-06-30T10:49:37.341Z,29.71
2018-06-30T10:50:47.073Z,29.61
2018-06-30T10:51:57.055Z,30.59
2018-06-30T10:53:07.054Z,30.38
2018-06-30T10:54:16.780Z,30.85
2018-06-30T10:55:26.610Z,30.66
2018-06-30T10:56:36.657Z,31.13
2018-06-30T10:57:46.390Z,31.42
2018-06-30T10:58:56.361Z,31.5
2018-06-30T11:00:06.398Z,31.89
2018-06-30T11:01:16.363Z,32.96
2018-06-30T11:02:26.343Z,33.33
2018-06-30T11:03:36.090Z,33.33
2018-06-30T11:04:46.071Z,32.56
2018-06-30T11:05:55.919Z,32.37
2018-06-30T11:07:06.284Z,31.5
2018-06-30T11:08:15.988Z,31.42
2018-06-30T11:09:25.993Z,30.76
2018-06-30T11:10:35.723Z,30.19
2018-06-30T11:11:45.452Z,29.24
2018-06-30T11:12:55.448Z,29.62
2018-06-30T11:14:05.175Z,29.8
2018-06-30T11:15:15.147Z,29.51
2018-06-30T11:16:24.864Z,29.32
2018-06-30T11:17:34.602Z,29.32
2018-06-30T11:18:44.904Z,29.51
2018-06-30T11:19:54.897Z,29.43
2018-06-30T11:21:04.948Z,29.25
2018-06-30T11:22:14.921Z,28.76
2018-06-30T11:23:24.771Z,27.89
2018-06-30T11:24:34.747Z,28.29
2018-06-30T11:25:44.472Z,27.61
2018-06-30T11:26:54.465Z,28.49
2018-06-30T11:28:04.462Z,28.47
2018-06-30T11:29:14.463Z,28.94
2018-06-30T11:30:24.548Z,29.71
2018-06-30T11:31:34.537Z,29.88
2018-06-30T11:32:44.523Z,30.73
2018-06-30T11:33:54.248Z,30.82
2018-06-30T11:35:03.964Z,31.7
2018-06-30T11:36:13.683Z,31.99
2018-06-30T11:37:23.653Z,32.17
2018-06-30T11:38:33.682Z,33.23
2018-06-30T11:39:43.665Z,33.02
2018-06-30T11:40:53.516Z,33.31
2018-06-30T11:42:04.046Z,32.34
2018-06-30T11:43:13.758Z,31.97
2018-06-30T11:44:23.751Z,31.21
2018-06-30T11:45:33.718Z,31.04
2018-06-30T11:46:43.707Z,30.74
2018-06-30T11:47:53.699Z,30.16
2018-06-30T11:49:03.675Z,29.68
2018-06-30T11:50:13.662Z,29.87
2018-06-30T11:51:23.518Z,29.19
2018-06-30T11:52:33.489Z,29.87
2018-06-30T11:53:43.483Z,30.73
2018-06-30T11:54:53.473Z,31.12
2018-06-30T11:56:03.192Z,31.6
2018-06-30T11:57:12.924Z,31.97
2018-06-30T11:58:22.895Z,32.17
2018-06-30T11:59:32.873Z,31.97
2018-06-30T12:00:42.604Z,31.87
2018-06-30T12:01:52.579Z,32.09
2018-06-30T12:03:02.675Z,32.09
2018-06-30T12:04:12.459Z,31.04
2018-06-30T12:05:22.450Z,30.66
2018-06-30T12:06:32.176Z,31.34
2018-06-30T12:07:41.889Z,31.71
2018-06-30T12:08:51.604Z,31.15
2018-06-30T12:10:01.333Z,30
2018-06-30T12:11:11.312Z,29.55
2018-06-30T12:12:21.312Z,27.61
2018-06-30T12:13:31.034Z,27.04
2018-06-30T12:14:41.010Z,27.62
2018-06-30T12:15:50.483Z,28.28
2018-06-30T12:17:00.458Z,28.47
2018-06-30T12:18:10.433Z,28.75
2018-06-30T12:19:20.415Z,28.85
2018-06-30T12:20:30.146Z,29.24
2018-06-30T12:21:39.871Z,28.45
2018-06-30T12:22:49.941Z,29.32
2018-06-30T12:24:00.275Z,29.4
2018-06-30T12:25:10.274Z,29.6
2018-06-30T12:26:20.240Z,30.18
2018-06-30T12:27:30.281Z,29.8
2018-06-30T12:28:40.263Z,30.09
2018-06-30T12:29:50.239Z,30.27
2018-06-30T12:31:00.246Z,31.04
2018-06-30T12:32:10.173Z,31.89
2018-06-30T12:33:20.308Z,32.36
2018-06-30T12:34:30.289Z,33.14
2018-06-30T12:35:40.028Z,33.23
2018-06-30T12:36:50.021Z,33.41
2018-06-30T12:38:00.040Z,33.89
2018-06-30T12:39:09.875Z,34.19
2018-06-30T12:40:20.018Z,34.38
2018-06-30T12:41:29.753Z,34.28
2018-06-30T12:42:39.745Z,34.09
2018-06-30T12:43:49.724Z,33.02
2018-06-30T12:44:59.549Z,33.42
2018-06-30T12:46:09.962Z,33.06
2018-06-30T12:47:19.430Z,32.67
2018-06-30T12:48:29.149Z,32.47
2018-06-30T12:49:39.138Z,31.81
2018-06-30T12:50:48.844Z,30.76
2018-06-30T12:51:58.559Z,30.68
2018-06-30T12:53:08.531Z,30.21
2018-06-30T12:54:18.431Z,29.82
2018-06-30T12:55:28.148Z,30.09
2018-06-30T12:56:38.118Z,30.08
2018-06-30T12:57:48.098Z,31.34
2018-06-30T12:58:57.561Z,31.79
2018-06-30T13:00:07.605Z,32.18
2018-06-30T13:01:17.578Z,31.89
2018-06-30T13:02:27.306Z,31.71
2018-06-30T13:03:37.315Z,32
2018-06-30T13:04:47.221Z,32.28
2018-06-30T13:05:56.947Z,33.23
2018-06-30T13:07:06.931Z,32.94
2018-06-30T13:08:16.657Z,32.46
2018-06-30T13:09:26.382Z,32.76
2018-06-30T13:10:36.106Z,32.76
2018-06-30T13:11:46.099Z,32.96
2018-06-30T13:12:56.080Z,33.04
2018-06-30T13:14:06.039Z,32.75
2018-06-30T13:15:16.016Z,33.22
2018-06-30T13:16:26.009Z,33.41
2018-06-30T13:17:35.753Z,33.31
2018-06-30T13:18:46.068Z,34.09
2018-06-30T13:19:56.039Z,34.38
2018-06-30T13:21:06.016Z,34.27
2018-06-30T13:22:16.000Z,33.59
2018-06-30T13:23:25.968Z,33.97
2018-06-30T13:24:35.939Z,34.55
2018-06-30T13:25:45.662Z,34.63
2018-06-30T13:26:55.647Z,34.71
2018-06-30T13:28:05.634Z,35.29
2018-06-30T13:29:15.350Z,35.29
2018-06-30T13:30:25.071Z,35.39
2018-06-30T13:31:35.052Z,35.76
2018-06-30T13:32:44.767Z,35.86
2018-06-30T13:33:53.971Z,35.76
2018-06-30T13:35:03.954Z,35.76
2018-06-30T13:36:13.668Z,35.95
2018-06-30T13:37:23.637Z,36.24
2018-06-30T13:38:33.619Z,36.05
2018-06-30T13:39:43.339Z,35.86
2018-06-30T13:40:53.380Z,35.68
2018-06-30T13:42:03.153Z,35.78
2018-06-30T13:43:13.251Z,35.49
2018-06-30T13:44:23.337Z,35.29
2018-06-30T13:45:33.330Z,34.25
2018-06-30T13:46:43.035Z,33.22
2018-06-30T13:47:53.022Z,32.65
2018-06-30T13:49:02.502Z,31.79
2018-06-30T13:50:12.492Z,32.1
2018-06-30T13:51:22.481Z,32.75
2018-06-30T13:52:32.494Z,32.56
2018-06-30T13:53:42.354Z,33.22
2018-06-30T13:54:52.089Z,33.31
2018-06-30T13:56:02.060Z,33.6
2018-06-30T13:57:11.790Z,33.14
2018-06-30T13:58:21.764Z,33.33
2018-06-30T13:59:31.492Z,33.31
2018-06-30T14:00:41.460Z,33.6
2018-06-30T14:01:51.271Z,33.99
2018-06-30T14:03:00.985Z,34.28
2018-06-30T14:04:10.462Z,33.89
2018-06-30T14:05:20.440Z,33.12
2018-06-30T14:06:30.422Z,33.12
2018-06-30T14:07:40.391Z,33.29
2018-06-30T14:08:50.367Z,33.59
2018-06-30T14:10:00.361Z,34.36
2018-06-30T14:11:10.324Z,33.95
2018-06-30T14:12:20.303Z,34.05
2018-06-30T14:13:30.008Z,34.25
2018-06-30T14:14:39.732Z,34.44
2018-06-30T14:15:49.729Z,34.63
2018-06-30T14:16:59.709Z,35.41
2018-06-30T14:18:09.498Z,34.73
2018-06-30T14:19:19.709Z,34.25
2018-06-30T14:20:29.162Z,33.97
2018-06-30T14:21:39.155Z,33.59
2018-06-30T14:22:48.895Z,33.29
2018-06-30T14:23:58.878Z,33.1
2018-06-30T14:25:08.874Z,33.12
2018-06-30T14:26:18.869Z,33.01
2018-06-30T14:27:28.591Z,33.41
2018-06-30T14:28:38.151Z,32.65
2018-06-30T14:29:48.340Z,32.18
2018-06-30T14:30:58.054Z,31.5
2018-06-30T14:32:07.788Z,29.98
2018-06-30T14:33:17.762Z,29.61
2018-06-30T14:34:27.756Z,29.43
2018-06-30T14:35:37.469Z,29.52
2018-06-30T14:36:47.685Z,29.35
2018-06-30T14:37:57.686Z,29.06
2018-06-30T14:39:07.673Z,29.06
2018-06-30T14:40:17.408Z,29.26
2018-06-30T14:41:27.136Z,29.26
2018-06-30T14:42:37.104Z,29.06
2018-06-30T14:43:47.178Z,28.99
2018-06-30T14:44:57.361Z,28.78
2018-06-30T14:46:07.096Z,29.16
2018-06-30T14:47:16.838Z,29.06
2018-06-30T14:48:26.827Z,28.39
2018-06-30T14:49:36.953Z,28.49
2018-06-30T14:50:46.832Z,28.39
2018-06-30T14:51:56.815Z,29.26
2018-06-30T14:53:06.307Z,29.64
2018-06-30T14:54:16.030Z,30.12
2018-06-30T14:55:26.029Z,30.01
2018-06-30T14:56:35.743Z,30.38
2018-06-30T14:57:45.746Z,30.77
2018-06-30T14:58:55.732Z,30.79
2018-06-30T15:00:05.221Z,31.18
2018-06-30T15:01:15.224Z,31.47
2018-06-30T15:02:25.203Z,31.18
2018-06-30T15:03:35.181Z,31.37
2018-06-30T15:04:45.172Z,30.79
2018-06-30T15:05:54.932Z,30.9